createdAt,value
2019-02-14T00:01:13.295Z,16.30
2019-02-14T00:03:40.577Z,17.30
2019-02-14T00:06:06.810Z,16.23
2019-02-14T00:08:33.152Z,16.57
2019-02-14T00:10:59.856Z,15.73
2019-02-14T00:13:26.276Z,15.70
2019-02-14T00:15:52.913Z,15.77
2019-02-14T00:18:19.662Z,15.37
2019-02-14T00:20:46.218Z,15.27
2019-02-14T00:23:12.847Z,15.23
2019-02-14T00:25:39.258Z,15.00
2019-02-14T00:28:05.592Z,16.10
2019-02-14T00:30:31.923Z,14.93
2019-02-14T00:32:58.355Z,15.67
2019-02-14T00:35:25.318Z,16.10
2019-02-14T00:37:51.836Z,15.50
2019-02-14T00:40:18.325Z,15.63
2019-02-14T00:42:44.699Z,14.47
2019-02-14T00:45:11.056Z,15.13
2019-02-14T00:47:37.460Z,14.50
2019-02-14T00:50:05.941Z,14.50
2019-02-14T00:52:32.170Z,16.07
2019-02-14T00:54:58.454Z,17.63
2019-02-14T00:57:24.842Z,17.43
2019-02-14T00:59:51.237Z,15.90
2019-02-14T01:02:17.817Z,15.53
2019-02-14T01:04:44.238Z,15.80
2019-02-14T01:07:12.175Z,15.63
2019-02-14T01:09:38.546Z,15.53
2019-02-14T01:12:05.372Z,14.20
2019-02-14T01:14:32.111Z,14.63
2019-02-14T01:16:58.441Z,14.83
2019-02-14T01:19:24.806Z,15.53
2019-02-14T01:21:51.305Z,14.33
2019-02-14T01:24:17.636Z,16.43
2019-02-14T01:26:44.067Z,17.43
2019-02-14T01:29:10.340Z,16.43
2019-02-14T01:31:36.728Z,16.70
2019-02-14T01:34:03.268Z,15.97
2019-02-14T01:36:29.924Z,15.13
2019-02-14T01:38:56.338Z,15.70
2019-02-14T01:41:22.664Z,16.17
2019-02-14T01:43:49.000Z,16.03
2019-02-14T01:46:15.310Z,15.87
2019-02-14T01:48:41.596Z,15.60
2019-02-14T01:51:07.984Z,16.33
2019-02-14T01:53:34.314Z,15.70
2019-02-14T01:56:00.609Z,17.67
2019-02-14T01:58:27.041Z,15.77
2019-02-14T02:00:53.408Z,15.87
2019-02-14T02:03:19.659Z,17.47
2019-02-14T02:05:50.758Z,15.60
2019-02-14T02:08:14.065Z,16.10
2019-02-14T02:10:40.469Z,15.53
2019-02-14T02:13:06.850Z,16.43
2019-02-14T02:15:33.548Z,15.03
2019-02-14T02:17:59.876Z,15.73
2019-02-14T02:20:33.209Z,15.30
2019-02-14T02:22:54.242Z,16.33
2019-02-14T02:25:20.603Z,17.37
2019-02-14T02:27:46.821Z,15.57
2019-02-14T02:30:14.081Z,15.77
2019-02-14T02:32:40.305Z,16.03
2019-02-14T02:35:07.333Z,15.20
2019-02-14T02:37:33.642Z,15.37
2019-02-14T02:39:59.948Z,15.80
2019-02-14T02:42:26.253Z,14.93
2019-02-14T02:44:52.574Z,15.10
2019-02-14T02:47:18.905Z,13.87
2019-02-14T02:49:45.151Z,14.50
2019-02-14T02:52:11.462Z,15.17
2019-02-14T02:54:37.792Z,14.57
2019-02-14T02:57:04.060Z,14.03
2019-02-14T02:59:32.226Z,15.23
2019-02-14T03:01:58.598Z,14.63
2019-02-14T03:04:24.959Z,15.83
2019-02-14T03:06:51.288Z,14.50
2019-02-14T03:09:17.622Z,14.50
2019-02-14T03:11:43.935Z,14.97
2019-02-14T03:14:10.285Z,14.03
2019-02-14T03:16:36.539Z,15.17
2019-02-14T03:19:03.042Z,15.60
2019-02-14T03:21:29.366Z,15.83
2019-02-14T03:23:55.706Z,15.83
2019-02-14T03:26:21.967Z,14.70
2019-02-14T03:28:48.591Z,14.50
2019-02-14T03:31:14.889Z,15.13
2019-02-14T03:33:41.191Z,16.33
2019-02-14T03:36:07.484Z,15.73
2019-02-14T03:38:35.711Z,14.20
2019-02-14T03:41:02.205Z,14.73
2019-02-14T03:43:28.493Z,13.43
2019-02-14T03:45:54.823Z,14.90
2019-02-14T03:48:21.081Z,14.67
2019-02-14T03:50:47.360Z,14.10
2019-02-14T03:53:13.646Z,14.87
2019-02-14T03:55:39.976Z,14.23
2019-02-14T03:58:07.329Z,14.60
2019-02-14T04:00:33.577Z,13.87
2019-02-14T04:02:59.874Z,14.13
2019-02-14T04:05:26.284Z,13.67
2019-02-14T04:07:52.563Z,14.73
2019-02-14T04:10:19.168Z,16.73
2019-02-14T04:12:45.582Z,14.57
2019-02-14T04:15:14.891Z,15.37
2019-02-14T04:17:41.314Z,15.57
2019-02-14T04:20:08.917Z,14.67
2019-02-14T04:22:35.305Z,14.90
2019-02-14T04:25:01.656Z,15.07
2019-02-14T04:27:27.946Z,14.60
2019-02-14T04:29:54.296Z,14.53
2019-02-14T04:32:20.848Z,15.30
2019-02-14T04:34:47.163Z,15.30
2019-02-14T04:37:13.464Z,14.03
2019-02-14T04:39:40.206Z,14.07
2019-02-14T04:42:06.500Z,14.43
2019-02-14T04:44:32.789Z,13.07
2019-02-14T04:46:59.100Z,13.17
2019-02-14T04:49:25.448Z,13.03
2019-02-14T04:51:51.696Z,15.20
2019-02-14T04:54:37.859Z,13.90
2019-02-14T04:57:04.520Z,14.70
2019-02-14T04:59:30.743Z,14.17
2019-02-14T05:01:57.150Z,13.43
2019-02-14T05:04:23.454Z,13.87
2019-02-14T05:06:49.769Z,13.23
2019-02-14T05:09:16.165Z,13.93
2019-02-14T05:11:42.717Z,14.00
2019-02-14T05:14:09.031Z,13.30
2019-02-14T05:16:35.464Z,14.47
2019-02-14T05:19:01.768Z,14.67
2019-02-14T05:21:28.124Z,14.40
2019-02-14T05:23:54.453Z,14.83
2019-02-14T05:26:20.683Z,14.47
2019-02-14T05:28:47.229Z,14.40
2019-02-14T05:31:13.686Z,13.43
2019-02-14T05:33:40.084Z,12.17
2019-02-14T05:36:06.633Z,12.13
2019-02-14T05:38:34.617Z,13.03
2019-02-14T05:41:00.858Z,12.20
2019-02-14T05:43:27.183Z,12.80
2019-02-14T05:45:53.575Z,14.20
2019-02-14T05:48:19.903Z,13.17
2019-02-14T05:50:46.233Z,13.20
2019-02-14T05:53:12.565Z,13.23
2019-02-14T05:55:38.894Z,13.37
2019-02-14T05:58:05.330Z,13.00
2019-02-14T06:00:31.664Z,13.53
2019-02-14T06:02:57.902Z,14.03
2019-02-14T06:05:24.222Z,13.50
2019-02-14T06:07:50.647Z,12.93
2019-02-14T06:10:17.073Z,12.60
2019-02-14T06:12:43.412Z,12.73
2019-02-14T06:15:10.671Z,14.43
2019-02-14T06:17:36.939Z,14.93
2019-02-14T06:20:05.531Z,14.07
2019-02-14T06:22:31.876Z,12.97
2019-02-14T06:24:58.236Z,12.87
2019-02-14T06:27:24.481Z,13.07
2019-02-14T06:29:50.787Z,12.47
2019-02-14T06:32:17.189Z,12.80
2019-02-14T06:34:43.482Z,13.93
2019-02-14T06:37:10.085Z,13.73
2019-02-14T06:39:36.421Z,13.77
2019-02-14T06:42:03.070Z,13.27
2019-02-14T06:44:29.284Z,15.50
2019-02-14T06:46:55.619Z,15.27
2019-02-14T06:49:21.950Z,15.47
2019-02-14T06:51:48.279Z,16.50
2019-02-14T06:54:14.614Z,14.67
2019-02-14T06:56:40.943Z,14.90
2019-02-14T06:59:07.220Z,15.43
2019-02-14T07:01:33.600Z,13.57
2019-02-14T07:03:59.825Z,13.13
2019-02-14T07:06:26.158Z,13.80
2019-02-14T07:08:52.488Z,13.90
2019-02-14T07:11:18.817Z,14.10
2019-02-14T07:13:45.060Z,13.90
2019-02-14T07:16:11.340Z,14.67
2019-02-14T07:18:37.629Z,13.93
2019-02-14T07:21:04.371Z,14.97
2019-02-14T07:23:30.654Z,14.60
2019-02-14T07:25:57.007Z,13.50
2019-02-14T07:28:23.335Z,12.93
2019-02-14T07:30:49.665Z,12.53
2019-02-14T07:33:15.893Z,14.13
2019-02-14T07:35:42.223Z,13.27
2019-02-14T07:38:08.460Z,13.27
2019-02-14T07:40:34.769Z,14.67
2019-02-14T07:43:01.438Z,15.37
2019-02-14T07:45:27.849Z,14.33
2019-02-14T07:47:54.793Z,14.33
2019-02-14T07:50:21.126Z,14.50
2019-02-14T07:52:47.610Z,13.73
2019-02-14T07:55:14.053Z,13.83
2019-02-14T07:57:40.729Z,13.43
2019-02-14T08:00:13.870Z,13.13
2019-02-14T08:02:40.368Z,14.40
2019-02-14T08:05:07.797Z,12.13
2019-02-14T08:07:35.860Z,13.60
2019-02-14T08:10:02.798Z,12.90
2019-02-14T08:12:29.187Z,12.50
2019-02-14T08:14:55.513Z,12.27
2019-02-14T08:17:21.816Z,12.03
2019-02-14T08:19:48.098Z,12.80
2019-02-14T08:22:14.408Z,13.00
2019-02-14T08:24:41.863Z,11.90
2019-02-14T08:27:08.262Z,12.53
2019-02-14T08:29:34.797Z,12.27
2019-02-14T08:32:01.455Z,11.50
2019-02-14T08:34:27.750Z,12.17
2019-02-14T08:36:54.095Z,12.33
2019-02-14T08:39:20.654Z,12.60
2019-02-14T08:41:47.063Z,12.40
2019-02-14T08:44:13.393Z,11.83
2019-02-14T08:46:39.646Z,11.97
2019-02-14T08:49:05.942Z,11.90
2019-02-14T08:51:32.661Z,11.70
2019-02-14T08:53:59.123Z,12.97
2019-02-14T08:56:25.454Z,11.10
2019-02-14T08:58:51.785Z,12.90
2019-02-14T09:01:18.117Z,12.33
2019-02-14T09:03:44.331Z,12.07
2019-02-14T09:06:11.034Z,11.50
2019-02-14T09:08:37.413Z,10.97
2019-02-14T09:11:03.614Z,10.70
2019-02-14T09:13:30.304Z,11.00
2019-02-14T09:15:56.719Z,10.73
2019-02-14T09:18:23.040Z,10.93
2019-02-14T09:20:49.369Z,10.83
2019-02-14T09:23:16.009Z,9.73
2019-02-14T09:25:42.378Z,10.00
2019-02-14T09:28:08.689Z,9.80
2019-02-14T09:30:35.100Z,9.40
2019-02-14T09:33:01.533Z,9.83
2019-02-14T09:35:27.813Z,9.67
2019-02-14T09:38:02.787Z,9.30
2019-02-14T09:40:22.224Z,9.47
2019-02-14T09:42:48.608Z,9.20
2019-02-14T09:45:15.142Z,7.80
2019-02-14T09:47:41.477Z,9.37
2019-02-14T09:50:12.049Z,8.67
2019-02-14T09:52:39.596Z,8.33
2019-02-14T09:55:08.576Z,8.43
2019-02-14T09:57:34.981Z,8.53
2019-02-14T10:00:01.354Z,9.27
2019-02-14T10:02:27.661Z,8.80
2019-02-14T10:04:53.938Z,9.90
2019-02-14T10:07:20.313Z,9.00
2019-02-14T10:09:46.623Z,9.40
2019-02-14T10:12:12.925Z,9.17
2019-02-14T10:14:39.219Z,8.40
2019-02-14T10:17:05.616Z,8.43
2019-02-14T10:19:31.950Z,9.17
2019-02-14T10:21:58.274Z,9.10
2019-02-14T10:24:24.484Z,9.13
2019-02-14T10:26:50.836Z,9.23
2019-02-14T10:29:17.104Z,7.87
2019-02-14T10:31:43.399Z,7.97
2019-02-14T10:34:09.823Z,8.33
2019-02-14T10:36:36.131Z,8.20
2019-02-14T10:39:04.127Z,7.80
2019-02-14T10:41:30.452Z,7.87
2019-02-14T10:43:57.100Z,7.80
2019-02-14T10:46:23.740Z,7.50
2019-02-14T10:48:49.956Z,7.90
2019-02-14T10:51:16.243Z,7.10
2019-02-14T10:53:42.616Z,8.27
2019-02-14T10:56:09.044Z,7.80
2019-02-14T10:58:37.062Z,7.27
2019-02-14T11:01:03.573Z,6.93
2019-02-14T11:03:29.865Z,7.43
2019-02-14T11:05:56.214Z,6.97
2019-02-14T11:08:31.107Z,8.10
2019-02-14T11:10:50.613Z,7.13
2019-02-14T11:13:16.833Z,7.77
2019-02-14T11:15:43.171Z,8.00
2019-02-14T11:18:09.503Z,6.53
2019-02-14T11:20:35.719Z,7.50
2019-02-14T11:23:02.150Z,6.90
2019-02-14T11:25:37.313Z,6.90
2019-02-14T11:28:03.731Z,6.97
2019-02-14T11:30:30.063Z,7.10
2019-02-14T11:32:56.343Z,7.93
2019-02-14T11:35:22.664Z,7.37
2019-02-14T11:37:49.052Z,7.20
2019-02-14T11:40:15.385Z,7.33
2019-02-14T11:42:41.713Z,7.93
2019-02-14T11:45:11.783Z,7.20
2019-02-14T11:47:38.162Z,7.50
2019-02-14T11:50:07.777Z,7.23
2019-02-14T11:52:35.839Z,7.83
2019-02-14T11:55:03.298Z,7.57
2019-02-14T11:57:29.628Z,7.10
2019-02-14T11:59:55.961Z,6.87
2019-02-14T12:02:22.248Z,7.23
2019-02-14T12:04:48.567Z,6.93
2019-02-14T12:07:14.948Z,6.63
2019-02-14T12:09:41.279Z,7.30
2019-02-14T12:12:09.586Z,6.40
2019-02-14T12:14:35.849Z,6.90
2019-02-14T12:17:02.113Z,7.30
2019-02-14T12:19:28.545Z,6.63
2019-02-14T12:21:54.980Z,6.87
2019-02-14T12:24:21.205Z,6.23
2019-02-14T12:26:47.640Z,6.60
2019-02-14T12:29:14.290Z,6.33
2019-02-14T12:31:40.709Z,6.60
2019-02-14T12:34:07.039Z,6.60
2019-02-14T12:36:33.373Z,6.67
2019-02-14T12:39:08.391Z,6.50
2019-02-14T12:41:27.905Z,6.07
2019-02-14T12:43:54.199Z,6.27
2019-02-14T12:46:20.847Z,7.10
2019-02-14T12:48:48.392Z,7.07
2019-02-14T12:51:14.636Z,6.40
2019-02-14T12:53:40.886Z,6.50
2019-02-14T12:56:07.305Z,5.63
2019-02-14T12:58:33.591Z,5.30
2019-02-14T13:00:59.948Z,6.30
2019-02-14T13:03:26.377Z,6.47
2019-02-14T13:05:52.608Z,5.67
2019-02-14T13:08:18.938Z,5.53
2019-02-14T13:10:45.269Z,5.63
2019-02-14T13:13:11.599Z,5.50
2019-02-14T13:15:39.184Z,5.67
2019-02-14T13:18:05.490Z,6.00
2019-02-14T13:20:31.879Z,5.43
2019-02-14T13:22:58.251Z,5.60
2019-02-14T13:25:24.692Z,6.23
2019-02-14T13:27:51.117Z,6.50
2019-02-14T13:30:24.000Z,5.67
2019-02-14T13:32:50.277Z,5.83
2019-02-14T13:35:16.898Z,6.03
2019-02-14T13:37:43.298Z,5.63
2019-02-14T13:40:10.060Z,5.57
2019-02-14T13:42:36.574Z,6.03
2019-02-14T13:45:05.851Z,5.40
2019-02-14T13:47:32.209Z,5.63
2019-02-14T13:49:58.534Z,5.60
2019-02-14T13:52:24.916Z,5.07
2019-02-14T13:54:51.182Z,5.53
2019-02-14T13:57:17.591Z,5.80
2019-02-14T13:59:43.869Z,6.20
2019-02-14T14:02:10.296Z,5.93
2019-02-14T14:04:36.619Z,5.70
2019-02-14T14:07:02.963Z,5.40
2019-02-14T14:09:38.229Z,5.80
2019-02-14T14:11:57.553Z,5.80
2019-02-14T14:14:23.885Z,5.27
2019-02-14T14:16:50.166Z,5.33
2019-02-14T14:19:16.459Z,5.27
2019-02-14T14:21:42.765Z,5.33
2019-02-14T14:24:09.102Z,5.77
2019-02-14T14:26:35.432Z,5.33
2019-02-14T14:29:01.763Z,5.30
2019-02-14T14:31:28.301Z,5.53
2019-02-14T14:33:54.530Z,5.50
2019-02-14T14:36:21.271Z,5.33
2019-02-14T14:38:47.589Z,5.27
2019-02-14T14:41:13.928Z,5.50
2019-02-14T14:43:50.957Z,4.43
2019-02-14T14:46:19.142Z,5.27
2019-02-14T14:48:45.861Z,4.80
2019-02-14T14:51:12.361Z,4.97
2019-02-14T14:53:38.690Z,4.70
2019-02-14T14:56:04.914Z,5.07
2019-02-14T14:58:31.313Z,5.30
2019-02-14T15:00:57.681Z,4.70
2019-02-14T15:03:24.011Z,4.57
2019-02-14T15:05:50.483Z,4.63
2019-02-14T15:08:16.885Z,5.00
2019-02-14T15:10:43.182Z,4.40
2019-02-14T15:13:09.750Z,5.00
2019-02-14T15:15:36.178Z,4.83
2019-02-14T15:18:02.504Z,4.70
2019-02-14T15:20:28.832Z,4.73
2019-02-14T15:22:56.389Z,4.50
2019-02-14T15:25:22.906Z,4.63
2019-02-14T15:27:49.255Z,5.30
2019-02-14T15:30:15.591Z,5.47
2019-02-14T15:32:41.918Z,6.40
2019-02-14T15:35:08.259Z,6.20
2019-02-14T15:37:34.579Z,5.70
2019-02-14T15:40:08.590Z,6.20
2019-02-14T15:42:29.081Z,6.20
2019-02-14T15:44:55.617Z,5.83
2019-02-14T15:47:21.945Z,5.50
2019-02-14T15:49:49.351Z,5.93
2019-02-14T15:52:15.842Z,5.10
2019-02-14T15:54:42.124Z,5.13
2019-02-14T15:57:08.495Z,4.93
2019-02-14T15:59:34.925Z,5.10
2019-02-14T16:02:01.369Z,4.33
2019-02-14T16:04:28.969Z,4.80
2019-02-14T16:06:55.864Z,4.60
2019-02-14T16:09:22.194Z,4.67
2019-02-14T16:11:48.524Z,4.23
2019-02-14T16:14:16.356Z,4.17
2019-02-14T16:16:43.397Z,5.00
2019-02-14T16:19:13.038Z,4.80
2019-02-14T16:21:39.222Z,4.77
2019-02-14T16:24:05.605Z,4.73
2019-02-14T16:26:31.933Z,5.00
2019-02-14T16:29:01.045Z,5.27
2019-02-14T16:31:26.335Z,4.90
2019-02-14T16:33:52.667Z,4.77
2019-02-14T16:36:20.618Z,4.97
2019-02-14T16:38:47.173Z,4.73
2019-02-14T16:41:13.471Z,4.80
2019-02-14T16:43:40.192Z,4.50
2019-02-14T16:46:06.507Z,4.80
2019-02-14T16:48:32.923Z,4.57
2019-02-14T16:50:59.239Z,5.10
2019-02-14T16:53:25.559Z,4.53
2019-02-14T16:55:51.890Z,5.13
2019-02-14T16:58:18.262Z,6.07
2019-02-14T17:00:44.557Z,5.33
2019-02-14T17:03:10.871Z,4.90
2019-02-14T17:05:37.211Z,4.63
2019-02-14T17:08:03.541Z,4.87
2019-02-14T17:10:36.821Z,4.90
2019-02-14T17:12:57.952Z,4.50
2019-02-14T17:15:24.272Z,5.00
2019-02-14T17:17:50.819Z,4.93
2019-02-14T17:20:17.465Z,4.97
2019-02-14T17:22:43.761Z,4.63
2019-02-14T17:25:10.267Z,4.67
2019-02-14T17:27:36.803Z,5.00
2019-02-14T17:30:05.532Z,4.83
2019-02-14T17:32:31.862Z,5.30
2019-02-14T17:34:58.117Z,5.90
2019-02-14T17:37:24.527Z,5.80
2019-02-14T17:39:50.799Z,6.00
2019-02-14T17:42:17.124Z,5.50
2019-02-14T17:44:43.615Z,5.90
2019-02-14T17:47:09.828Z,5.87
2019-02-14T17:49:36.130Z,4.73
2019-02-14T17:52:02.423Z,5.67
2019-02-14T17:54:28.732Z,5.70
2019-02-14T17:56:55.356Z,6.00
2019-02-14T17:59:21.633Z,5.50
2019-02-14T18:01:48.029Z,5.37
2019-02-14T18:04:14.463Z,5.27
2019-02-14T18:06:41.045Z,5.43
2019-02-14T18:09:07.431Z,5.40
2019-02-14T18:11:33.653Z,5.33
2019-02-14T18:13:59.938Z,5.30
2019-02-14T18:16:26.231Z,5.60
2019-02-14T18:18:52.651Z,6.00
2019-02-14T18:21:18.982Z,5.70
2019-02-14T18:23:45.313Z,5.40
2019-02-14T18:26:11.538Z,5.23
2019-02-14T18:28:37.971Z,6.30
2019-02-14T18:31:04.250Z,6.00
2019-02-14T18:33:30.735Z,5.90
2019-02-14T18:35:57.973Z,6.03
2019-02-14T18:38:24.423Z,5.70
2019-02-14T18:40:50.718Z,6.27
2019-02-14T18:43:17.011Z,5.40
2019-02-14T18:45:43.410Z,6.73
2019-02-14T18:48:11.531Z,5.60
2019-02-14T18:50:37.748Z,6.63
2019-02-14T18:53:04.139Z,7.07
2019-02-14T18:55:30.474Z,9.47
2019-02-14T18:57:56.806Z,9.87
2019-02-14T19:00:23.132Z,9.23
2019-02-14T19:02:49.395Z,8.93
2019-02-14T19:05:15.703Z,9.57
2019-02-14T19:07:41.960Z,9.93
2019-02-14T19:10:10.812Z,8.53
2019-02-14T19:12:37.147Z,7.67
2019-02-14T19:15:05.777Z,7.97
2019-02-14T19:17:32.106Z,8.10
2019-02-14T19:19:58.594Z,9.30
2019-02-14T19:22:24.975Z,7.93
2019-02-14T19:24:51.355Z,7.43
2019-02-14T19:27:17.587Z,7.37
2019-02-14T19:29:43.912Z,7.47
2019-02-14T19:32:10.219Z,6.33
2019-02-14T19:34:36.535Z,6.07
2019-02-14T19:37:02.904Z,6.73
2019-02-14T19:39:29.232Z,5.87
2019-02-14T19:41:57.236Z,6.80
2019-02-14T19:44:23.536Z,6.73
2019-02-14T19:46:50.122Z,6.50
2019-02-14T19:49:16.540Z,6.80
2019-02-14T19:51:42.818Z,6.90
2019-02-14T19:54:09.242Z,7.03
2019-02-14T19:56:35.535Z,6.73
2019-02-14T19:59:02.022Z,6.90
2019-02-14T20:01:28.336Z,7.53
2019-02-14T20:03:54.628Z,7.80
2019-02-14T20:06:21.117Z,7.27
2019-02-14T20:08:49.091Z,7.23
2019-02-14T20:11:15.527Z,7.80
2019-02-14T20:13:49.335Z,7.63
2019-02-14T20:16:29.709Z,8.13
2019-02-14T20:18:56.112Z,7.57
2019-02-14T20:21:22.773Z,7.90
2019-02-14T20:23:49.074Z,7.53
2019-02-14T20:26:15.412Z,6.90
2019-02-14T20:28:41.663Z,7.90
2019-02-14T20:31:08.074Z,8.17
2019-02-14T20:33:34.642Z,7.10
2019-02-14T20:36:00.939Z,7.57
2019-02-14T20:38:27.246Z,7.30
2019-02-14T20:40:53.533Z,7.47
2019-02-14T20:43:19.846Z,8.20
2019-02-14T20:45:46.173Z,7.80
2019-02-14T20:48:12.494Z,7.37
2019-02-14T20:50:38.816Z,7.27
2019-02-14T20:53:05.080Z,7.77
2019-02-14T20:55:32.735Z,7.30
2019-02-14T20:57:59.038Z,7.63
2019-02-14T21:00:33.557Z,8.63
2019-02-14T21:02:59.784Z,8.57
2019-02-14T21:05:26.422Z,8.57
2019-02-14T21:07:52.744Z,8.07
2019-02-14T21:10:19.029Z,8.27
2019-02-14T21:12:45.315Z,9.37
2019-02-14T21:15:11.744Z,8.57
2019-02-14T21:17:38.073Z,8.63
2019-02-14T21:20:15.234Z,8.17
2019-02-14T21:22:41.532Z,7.80
2019-02-14T21:25:08.545Z,7.90
2019-02-14T21:27:35.365Z,8.17
2019-02-14T21:30:02.269Z,7.40
2019-02-14T21:32:28.757Z,8.20
2019-02-14T21:34:55.104Z,8.33
2019-02-14T21:37:21.430Z,7.63
2019-02-14T21:39:47.744Z,8.20
2019-02-14T21:42:20.534Z,7.10
2019-02-14T21:44:43.210Z,8.13
2019-02-14T21:47:09.706Z,9.97
2019-02-14T21:49:36.151Z,9.30
2019-02-14T21:52:02.584Z,8.50
2019-02-14T21:54:29.114Z,8.77
2019-02-14T21:56:55.468Z,8.47
2019-02-14T21:59:21.913Z,9.27
2019-02-14T22:01:48.454Z,8.33
2019-02-14T22:04:15.350Z,8.07
2019-02-14T22:06:41.783Z,7.83
2019-02-14T22:09:08.321Z,8.77
2019-02-14T22:11:35.071Z,8.70
2019-02-14T22:14:01.747Z,9.27
2019-02-14T22:16:28.139Z,8.90
2019-02-14T22:18:54.438Z,8.70
2019-02-14T22:21:20.895Z,7.40
2019-02-14T22:23:47.152Z,7.77
2019-02-14T22:26:14.091Z,8.17
2019-02-14T22:28:42.297Z,7.37
2019-02-14T22:31:08.595Z,7.77
2019-02-14T22:33:35.019Z,8.30
2019-02-14T22:36:01.650Z,7.80
2019-02-14T22:38:27.964Z,7.97
2019-02-14T22:40:54.233Z,7.83
2019-02-14T22:43:20.515Z,6.83
2019-02-14T22:45:48.502Z,8.03
2019-02-14T22:48:14.926Z,7.43
2019-02-14T22:50:41.253Z,7.67
2019-02-14T22:53:07.584Z,7.87
2019-02-14T22:55:34.017Z,8.00
2019-02-14T22:58:00.266Z,7.70
2019-02-14T23:00:39.887Z,7.67
2019-02-14T23:03:06.730Z,7.80
2019-02-14T23:05:33.135Z,7.70
2019-02-14T23:07:59.492Z,7.47
2019-02-14T23:10:25.850Z,8.43
2019-02-14T23:12:55.693Z,7.30
2019-02-14T23:15:20.751Z,7.50
2019-02-14T23:17:47.272Z,7.23
2019-02-14T23:20:13.814Z,7.10
2019-02-14T23:22:40.242Z,7.03
2019-02-14T23:25:06.787Z,7.07
2019-02-14T23:27:33.113Z,7.90
2019-02-14T23:29:59.430Z,6.97
2019-02-14T23:32:27.091Z,6.77
2019-02-14T23:34:53.645Z,6.27
2019-02-14T23:37:21.911Z,6.27
2019-02-14T23:39:48.343Z,7.53
2019-02-14T23:42:14.572Z,6.50
2019-02-14T23:44:40.901Z,7.00
2019-02-14T23:47:07.182Z,7.67
2019-02-14T23:49:33.475Z,6.63
2019-02-14T23:52:00.011Z,7.70
2019-02-14T23:54:26.289Z,7.40
2019-02-14T23:56:52.653Z,7.37
2019-02-14T23:59:18.903Z,7.40
